createdAt,value
2023-02-17T00:00:34.799Z,11.20
2023-02-17T00:03:07.444Z,10.43
2023-02-17T00:05:42.973Z,10.18
2023-02-17T00:08:15.656Z,14.00
2023-02-17T00:10:57.339Z,12.73
2023-02-17T00:13:30.430Z,15.55
2023-02-17T00:16:21.189Z,14.98
2023-02-17T00:19:01.447Z,12.13
2023-02-17T00:21:34.017Z,14.50
2023-02-17T00:24:06.872Z,16.00
2023-02-17T00:26:39.599Z,14.23
2023-02-17T00:29:12.323Z,17.15
2023-02-17T00:31:46.129Z,13.02
2023-02-17T00:34:18.940Z,17.75
2023-02-17T00:36:51.832Z,13.27
2023-02-17T00:39:24.454Z,11.30
2023-02-17T00:41:57.080Z,11.25
2023-02-17T00:44:30.236Z,14.73
2023-02-17T00:47:02.801Z,11.30
2023-02-17T00:49:35.477Z,15.93
2023-02-17T00:52:08.077Z,13.18
2023-02-17T00:54:42.217Z,16.05
2023-02-17T00:57:15.651Z,12.90
2023-02-17T00:59:48.395Z,13.02
2023-02-17T01:02:20.970Z,11.98
2023-02-17T01:04:54.102Z,16.15
2023-02-17T01:07:26.878Z,11.63
2023-02-17T01:09:59.521Z,11.38
2023-02-17T01:12:33.776Z,11.70
2023-02-17T01:15:07.252Z,12.88
2023-02-17T01:20:13.569Z,14.70
2023-02-17T01:22:46.237Z,13.95
2023-02-17T01:25:18.968Z,11.68
2023-02-17T01:27:51.811Z,14.10
2023-02-17T01:30:26.131Z,11.95
2023-02-17T01:32:59.799Z,13.52
2023-02-17T01:35:51.771Z,13.13
2023-02-17T01:38:25.278Z,13.70
2023-02-17T01:40:58.613Z,15.00
2023-02-17T01:43:32.039Z,13.77
2023-02-17T01:48:52.780Z,15.73
2023-02-17T01:51:44.239Z,12.65
2023-02-17T01:54:57.250Z,10.57
2023-02-17T01:57:39.596Z,12.85
2023-02-17T02:00:17.756Z,10.80
2023-02-17T02:02:57.286Z,13.18
2023-02-17T02:08:35.169Z,11.20
2023-02-17T02:11:07.930Z,13.70
2023-02-17T02:13:40.938Z,12.55
2023-02-17T02:16:49.854Z,9.70
2023-02-17T02:20:09.143Z,12.15
2023-02-17T02:23:09.605Z,9.68
2023-02-17T02:26:06.835Z,10.15
2023-02-17T02:29:23.947Z,11.65
2023-02-17T02:32:05.595Z,13.60
2023-02-17T02:34:46.170Z,11.30
2023-02-17T02:37:46.369Z,10.30
2023-02-17T02:40:23.362Z,8.63
2023-02-17T02:42:57.718Z,12.25
2023-02-17T02:45:31.355Z,16.88
2023-02-17T02:48:04.578Z,12.18
2023-02-17T02:51:01.561Z,13.02
2023-02-17T02:53:51.349Z,13.35
2023-02-17T02:56:52.438Z,10.85
2023-02-17T02:59:53.315Z,16.38
2023-02-17T03:06:06.269Z,9.85
2023-02-17T03:08:47.680Z,11.98
2023-02-17T03:11:35.097Z,11.25
2023-02-17T03:14:12.413Z,11.35
2023-02-17T03:16:46.549Z,10.88
2023-02-17T03:19:22.473Z,11.65
2023-02-17T03:22:07.674Z,10.82
2023-02-17T03:24:40.951Z,17.63
2023-02-17T03:27:14.487Z,12.38
2023-02-17T03:29:47.327Z,10.48
2023-02-17T03:32:20.816Z,14.00
2023-02-17T03:34:54.219Z,12.65
2023-02-17T03:37:29.570Z,12.50
2023-02-17T03:40:02.451Z,13.98
2023-02-17T03:42:35.239Z,14.70
2023-02-17T03:45:08.084Z,12.65
2023-02-17T03:47:41.877Z,15.60
2023-02-17T03:50:14.771Z,13.73
2023-02-17T03:52:47.328Z,10.30
2023-02-17T03:55:19.877Z,12.25
2023-02-17T03:57:52.534Z,13.00
2023-02-17T04:00:49.962Z,11.73
2023-02-17T04:03:22.750Z,14.00
2023-02-17T04:05:55.800Z,14.55
2023-02-17T04:08:29.495Z,15.23
2023-02-17T04:11:04.384Z,21.15
2023-02-17T04:13:50.292Z,11.88
2023-02-17T04:16:31.273Z,12.25
2023-02-17T04:19:03.926Z,14.20
2023-02-17T04:21:36.997Z,13.85
2023-02-17T04:24:09.596Z,13.63
2023-02-17T04:26:42.585Z,12.07
2023-02-17T04:29:15.256Z,12.48
2023-02-17T04:31:48.065Z,12.73
2023-02-17T04:34:20.661Z,13.25
2023-02-17T04:36:53.309Z,11.82
2023-02-17T04:39:26.100Z,11.02
2023-02-17T04:41:58.877Z,12.70
2023-02-17T04:44:31.601Z,12.95
2023-02-17T04:47:04.246Z,12.52
2023-02-17T04:50:03.121Z,9.63
2023-02-17T04:52:35.881Z,10.07
2023-02-17T04:55:08.984Z,10.55
2023-02-17T04:57:41.596Z,10.23
2023-02-17T05:00:14.565Z,12.43
2023-02-17T05:02:47.241Z,11.45
2023-02-17T05:05:20.116Z,11.70
2023-02-17T05:07:52.720Z,14.75
2023-02-17T05:10:25.482Z,12.88
2023-02-17T05:12:58.288Z,13.77
2023-02-17T05:15:33.139Z,10.50
2023-02-17T05:18:07.458Z,10.65
2023-02-17T05:20:40.214Z,11.80
2023-02-17T05:23:12.785Z,21.35
2023-02-17T05:25:45.407Z,11.38
2023-02-17T05:28:18.094Z,15.05
2023-02-17T05:30:50.931Z,13.13
2023-02-17T05:33:23.514Z,10.88
2023-02-17T05:35:56.275Z,13.18
2023-02-17T05:38:29.073Z,11.25
2023-02-17T05:41:01.908Z,14.02
2023-02-17T05:43:34.590Z,10.98
2023-02-17T05:46:07.521Z,15.00
2023-02-17T05:48:40.302Z,14.82
2023-02-17T05:51:17.404Z,16.73
2023-02-17T05:53:50.029Z,15.57
2023-02-17T05:56:22.646Z,15.93
2023-02-17T05:58:55.222Z,17.50
2023-02-17T06:01:28.135Z,18.17
2023-02-17T06:04:02.089Z,17.73
2023-02-17T06:06:34.701Z,16.67
2023-02-17T06:09:07.448Z,16.63
2023-02-17T06:11:39.994Z,21.13
2023-02-17T06:14:12.652Z,16.98
2023-02-17T06:16:45.184Z,19.73
2023-02-17T06:19:17.733Z,19.40
2023-02-17T06:21:50.660Z,21.10
2023-02-17T06:24:24.068Z,17.13
2023-02-17T06:26:56.663Z,19.40
2023-02-17T06:29:29.630Z,18.73
2023-02-17T06:32:07.873Z,24.02
2023-02-17T06:34:48.410Z,21.75
2023-02-17T06:37:34.918Z,23.67
2023-02-17T06:40:37.319Z,22.17
2023-02-17T06:43:10.135Z,21.08
2023-02-17T06:45:56.369Z,23.40
2023-02-17T06:51:28.262Z,18.40
2023-02-17T06:54:14.776Z,22.08
2023-02-17T06:59:31.496Z,25.63
2023-02-17T07:02:23.310Z,24.80
2023-02-17T07:08:49.579Z,19.67
2023-02-17T07:11:35.264Z,31.80
2023-02-17T07:17:12.279Z,23.55
2023-02-17T07:19:50.021Z,25.63
2023-02-17T07:22:28.392Z,24.25
2023-02-17T07:25:08.544Z,22.50
2023-02-17T07:27:41.249Z,31.63
2023-02-17T07:30:14.322Z,22.23
2023-02-17T07:32:46.896Z,25.23
2023-02-17T07:35:20.500Z,21.90
2023-02-17T07:37:53.167Z,25.08
2023-02-17T07:40:26.554Z,25.27
2023-02-17T07:42:59.128Z,24.60
2023-02-17T07:45:32.384Z,30.05
2023-02-17T07:50:38.012Z,23.42
2023-02-17T07:53:10.836Z,27.13
2023-02-17T07:55:43.530Z,28.60
2023-02-17T07:58:16.200Z,35.95
2023-02-17T08:00:49.008Z,25.23
2023-02-17T08:03:21.593Z,25.38
2023-02-17T08:05:54.288Z,30.58
2023-02-17T08:08:45.797Z,22.60
2023-02-17T08:11:36.669Z,30.92
2023-02-17T08:14:11.558Z,23.52
2023-02-17T08:16:45.524Z,21.20
2023-02-17T08:19:31.736Z,22.75
2023-02-17T08:22:12.210Z,22.33
2023-02-17T08:24:45.598Z,21.13
2023-02-17T08:29:51.629Z,24.55
2023-02-17T08:32:24.539Z,19.40
2023-02-17T08:34:57.723Z,17.40
2023-02-17T08:37:32.122Z,18.45
2023-02-17T08:40:05.122Z,20.52
2023-02-17T08:42:39.145Z,16.88
2023-02-17T08:45:14.876Z,19.17
2023-02-17T08:47:51.200Z,15.25
2023-02-17T08:50:24.243Z,16.58
2023-02-17T08:52:57.078Z,18.20
2023-02-17T08:55:35.583Z,16.38
2023-02-17T08:58:16.825Z,14.30
2023-02-17T09:00:50.884Z,13.68
2023-02-17T09:03:23.635Z,21.48
2023-02-17T09:05:57.380Z,15.18
2023-02-17T09:08:30.237Z,15.57
2023-02-17T09:11:03.094Z,15.00
2023-02-17T09:13:37.750Z,22.58
2023-02-17T09:16:11.043Z,13.48
2023-02-17T09:18:43.935Z,20.77
2023-02-17T09:21:17.319Z,12.52
2023-02-17T09:23:50.541Z,14.13
2023-02-17T09:26:24.005Z,18.67
2023-02-17T09:28:58.353Z,13.13
2023-02-17T09:31:33.394Z,15.93
2023-02-17T09:34:06.504Z,11.85
2023-02-17T09:36:42.236Z,12.27
2023-02-17T09:39:15.440Z,12.18
2023-02-17T09:44:27.200Z,13.27
2023-02-17T09:47:05.952Z,10.52
2023-02-17T09:49:48.249Z,11.60
2023-02-17T09:52:34.301Z,10.25
2023-02-17T09:55:09.153Z,12.02
2023-02-17T09:58:08.310Z,14.13
2023-02-17T10:00:49.039Z,11.35
2023-02-17T10:03:31.504Z,11.13
2023-02-17T10:06:38.688Z,10.50
2023-02-17T10:09:40.946Z,12.80
2023-02-17T10:12:21.084Z,16.95
2023-02-17T10:15:01.616Z,9.43
2023-02-17T10:17:51.095Z,11.00
2023-02-17T10:20:23.884Z,8.05
2023-02-17T10:23:05.510Z,12.00
2023-02-17T10:26:18.515Z,13.75
2023-02-17T10:28:52.659Z,11.07
2023-02-17T10:31:44.862Z,12.90
2023-02-17T10:34:35.387Z,11.10
2023-02-17T10:37:29.500Z,10.40
2023-02-17T10:40:03.822Z,11.32
2023-02-17T10:42:39.084Z,12.07
2023-02-17T10:45:42.881Z,10.40
2023-02-17T10:48:23.227Z,11.93
2023-02-17T10:51:01.127Z,8.45
2023-02-17T10:53:41.393Z,12.00
2023-02-17T10:56:19.255Z,9.02
2023-02-17T10:59:27.377Z,14.20
2023-02-17T11:02:37.126Z,11.60
2023-02-17T11:05:23.038Z,9.45
2023-02-17T11:07:59.758Z,8.43
2023-02-17T11:10:36.824Z,7.47
2023-02-17T11:13:38.385Z,8.15
2023-02-17T11:16:32.988Z,9.75
2023-02-17T11:19:08.430Z,15.70
2023-02-17T11:21:44.503Z,7.25
2023-02-17T11:24:17.359Z,9.77
2023-02-17T11:27:24.687Z,10.38
2023-02-17T11:30:12.776Z,13.45
2023-02-17T11:32:46.029Z,8.73
2023-02-17T11:35:46.756Z,9.55
2023-02-17T11:38:33.713Z,7.72
2023-02-17T11:41:40.318Z,8.63
2023-02-17T11:44:22.423Z,9.20
2023-02-17T11:47:18.127Z,9.82
2023-02-17T11:49:58.560Z,12.05
2023-02-17T11:52:33.895Z,8.70
2023-02-17T11:55:27.702Z,10.00
2023-02-17T12:00:58.376Z,8.88
2023-02-17T12:03:42.692Z,10.90
2023-02-17T12:06:57.430Z,8.15
2023-02-17T12:09:50.209Z,8.98
2023-02-17T12:12:25.920Z,10.13
2023-02-17T12:15:25.893Z,10.43
2023-02-17T12:18:26.697Z,9.23
2023-02-17T12:21:25.292Z,9.13
2023-02-17T12:24:31.802Z,8.77
2023-02-17T12:27:12.262Z,9.57
2023-02-17T12:30:15.204Z,12.30
2023-02-17T12:32:54.703Z,14.13
2023-02-17T12:35:40.979Z,10.60
2023-02-17T12:38:19.328Z,8.25
2023-02-17T12:40:58.843Z,8.95
2023-02-17T12:43:56.097Z,8.75
2023-02-17T12:46:46.776Z,8.80
2023-02-17T12:49:43.730Z,10.18
2023-02-17T12:52:28.595Z,8.63
2023-02-17T12:55:10.599Z,6.88
2023-02-17T12:57:58.765Z,6.95
2023-02-17T13:01:17.232Z,7.78
2023-02-17T13:03:49.876Z,6.95
2023-02-17T13:06:38.310Z,7.82
2023-02-17T13:09:25.620Z,7.70
2023-02-17T13:12:25.245Z,7.53
2023-02-17T13:15:01.107Z,9.10
2023-02-17T13:17:52.546Z,8.38
2023-02-17T13:20:51.515Z,8.50
2023-02-17T13:23:39.955Z,9.40
2023-02-17T13:26:25.756Z,6.72
2023-02-17T13:29:34.084Z,11.25
2023-02-17T13:32:11.955Z,16.77
2023-02-17T13:34:46.654Z,6.85
2023-02-17T13:37:47.243Z,6.90
2023-02-17T13:40:19.814Z,8.57
2023-02-17T13:42:55.016Z,7.60
2023-02-17T13:45:34.413Z,7.25
2023-02-17T13:48:47.603Z,7.95
2023-02-17T13:51:28.860Z,6.78
2023-02-17T13:54:08.968Z,7.40
2023-02-17T13:56:44.929Z,6.25
2023-02-17T13:59:24.248Z,9.75
2023-02-17T14:01:56.978Z,7.35
2023-02-17T14:04:31.927Z,11.35
2023-02-17T14:07:05.737Z,8.25
2023-02-17T14:09:38.500Z,7.88
2023-02-17T14:12:23.725Z,6.82
2023-02-17T14:14:56.513Z,7.20
2023-02-17T14:17:32.820Z,6.32
2023-02-17T14:20:06.228Z,6.63
2023-02-17T14:25:26.619Z,9.45
2023-02-17T14:27:59.274Z,9.10
2023-02-17T14:30:34.066Z,11.52
2023-02-17T14:33:16.502Z,6.93
2023-02-17T14:36:00.433Z,7.50
2023-02-17T14:38:37.777Z,6.53
2023-02-17T14:41:11.662Z,7.78
2023-02-17T14:43:44.319Z,8.68
2023-02-17T14:46:19.867Z,10.63
2023-02-17T14:48:52.975Z,8.13
2023-02-17T14:51:31.396Z,7.32
2023-02-17T14:54:14.208Z,6.82
2023-02-17T14:57:05.416Z,6.35
2023-02-17T14:59:37.978Z,6.47
2023-02-17T15:02:19.177Z,16.17
2023-02-17T15:04:52.125Z,9.43
2023-02-17T15:07:27.968Z,8.55
2023-02-17T15:10:00.628Z,10.48
2023-02-17T15:12:34.805Z,10.52
2023-02-17T15:15:10.212Z,10.38
2023-02-17T15:17:43.055Z,13.13
2023-02-17T15:20:17.465Z,6.78
2023-02-17T15:22:56.036Z,11.02
2023-02-17T15:25:39.159Z,10.23
2023-02-17T15:31:05.649Z,9.70
2023-02-17T15:33:41.177Z,7.57
2023-02-17T15:36:17.141Z,11.63
2023-02-17T15:38:49.780Z,11.00
2023-02-17T15:41:26.198Z,6.63
2023-02-17T15:43:58.999Z,6.85
2023-02-17T15:46:33.434Z,9.50
2023-02-17T15:49:06.351Z,10.63
2023-02-17T15:51:39.562Z,13.52
2023-02-17T15:54:13.367Z,9.38
2023-02-17T15:56:53.150Z,11.45
2023-02-17T15:59:27.070Z,8.40
2023-02-17T16:02:02.544Z,8.23
2023-02-17T16:04:35.211Z,9.35
2023-02-17T16:07:07.828Z,9.30
2023-02-17T16:09:40.627Z,9.00
2023-02-17T16:12:19.167Z,8.13
2023-02-17T16:14:51.815Z,7.95
2023-02-17T16:17:25.507Z,7.88
2023-02-17T16:19:58.180Z,11.35
2023-02-17T16:22:30.715Z,12.15
2023-02-17T16:25:03.529Z,11.40
2023-02-17T16:27:36.855Z,8.60
2023-02-17T16:32:53.946Z,15.93
2023-02-17T16:35:29.744Z,8.70
2023-02-17T16:38:07.496Z,9.70
2023-02-17T16:40:47.752Z,12.18
2023-02-17T16:43:24.337Z,9.25
2023-02-17T16:46:00.830Z,11.52
2023-02-17T16:48:37.189Z,8.52
2023-02-17T16:51:55.015Z,12.60
2023-02-17T16:54:46.099Z,33.97
2023-02-17T16:57:28.732Z,12.55
2023-02-17T17:00:01.467Z,12.52
2023-02-17T17:02:34.143Z,12.40
2023-02-17T17:05:08.060Z,9.30
2023-02-17T17:07:41.424Z,9.88
2023-02-17T17:10:17.422Z,11.32
2023-02-17T17:12:50.149Z,9.90
2023-02-17T17:15:23.856Z,9.73
2023-02-17T17:18:01.230Z,15.73
2023-02-17T17:20:41.640Z,11.07
2023-02-17T17:23:16.053Z,10.85
2023-02-17T17:25:51.590Z,12.82
2023-02-17T17:28:24.347Z,15.02
2023-02-17T17:30:57.034Z,14.52
2023-02-17T17:33:29.580Z,14.60
2023-02-17T17:36:02.191Z,13.00
2023-02-17T17:38:34.714Z,15.48
2023-02-17T17:41:07.345Z,10.75
2023-02-17T17:43:40.386Z,11.55
2023-02-17T17:46:18.611Z,16.00
2023-02-17T17:48:52.044Z,17.33
2023-02-17T17:55:15.142Z,17.70
2023-02-17T17:57:50.693Z,11.10
2023-02-17T18:00:23.598Z,12.65
2023-02-17T18:02:56.229Z,14.32
2023-02-17T18:05:29.044Z,13.73
2023-02-17T18:08:01.926Z,11.88
2023-02-17T18:10:34.620Z,14.48
2023-02-17T18:13:11.430Z,15.85
2023-02-17T18:15:44.613Z,17.30
2023-02-17T18:20:50.124Z,16.85
2023-02-17T18:23:22.773Z,14.70
2023-02-17T18:25:55.553Z,17.30
2023-02-17T18:28:28.523Z,15.63
2023-02-17T18:31:08.087Z,14.93
2023-02-17T18:33:40.887Z,19.40
2023-02-17T18:36:17.286Z,17.75
2023-02-17T18:38:51.912Z,17.88
2023-02-17T18:41:31.364Z,15.27
2023-02-17T18:44:05.336Z,15.93
2023-02-17T18:46:41.320Z,15.00
2023-02-17T18:49:14.128Z,15.73
2023-02-17T18:51:46.818Z,16.00
2023-02-17T18:54:19.424Z,15.73
2023-02-17T18:56:52.089Z,16.08
2023-02-17T18:59:24.699Z,14.85
2023-02-17T19:01:57.294Z,20.60
2023-02-17T19:04:29.882Z,18.77
2023-02-17T19:07:07.401Z,15.60
2023-02-17T19:09:45.077Z,16.83
2023-02-17T19:12:18.348Z,17.55
2023-02-17T19:17:28.524Z,16.55
2023-02-17T19:20:01.407Z,16.42
2023-02-17T19:22:37.996Z,19.95
2023-02-17T19:25:10.805Z,21.55
2023-02-17T19:27:43.451Z,19.52
2023-02-17T19:30:16.845Z,20.77
2023-02-17T19:32:49.530Z,22.90
2023-02-17T19:35:22.222Z,18.48
2023-02-17T19:37:54.863Z,17.58
2023-02-17T19:40:27.503Z,18.85
2023-02-17T19:43:01.556Z,20.42
2023-02-17T19:45:34.845Z,26.40
2023-02-17T19:50:40.116Z,18.73
2023-02-17T19:53:12.777Z,25.52
2023-02-17T19:55:45.449Z,25.33
2023-02-17T19:58:18.174Z,23.88
2023-02-17T20:00:50.941Z,22.98
2023-02-17T20:03:23.733Z,24.60
2023-02-17T20:05:56.470Z,21.55
2023-02-17T20:08:29.200Z,26.00
2023-02-17T20:11:09.448Z,27.25
2023-02-17T20:13:46.880Z,28.85
2023-02-17T20:16:19.926Z,26.38
2023-02-17T20:18:52.663Z,24.45
2023-02-17T20:21:28.551Z,27.52
2023-02-17T20:24:01.578Z,23.92
2023-02-17T20:26:41.057Z,30.15
2023-02-17T20:29:14.350Z,25.58
2023-02-17T20:34:30.795Z,24.45
2023-02-17T20:37:04.006Z,24.52
2023-02-17T20:39:38.849Z,31.05
2023-02-17T20:42:11.638Z,22.88
2023-02-17T20:44:46.007Z,23.35
2023-02-17T20:47:18.743Z,22.95
2023-02-17T20:49:51.437Z,24.75
2023-02-17T20:52:24.258Z,27.42
2023-02-17T20:54:57.357Z,24.65
2023-02-17T20:57:31.397Z,26.40
2023-02-17T21:00:07.222Z,23.90
2023-02-17T21:02:40.091Z,22.75
2023-02-17T21:05:13.334Z,24.63
2023-02-17T21:08:03.001Z,25.38
2023-02-17T21:10:40.128Z,25.23
2023-02-17T21:13:13.190Z,28.13
2023-02-17T21:15:50.025Z,28.77
2023-02-17T21:18:32.610Z,27.90
2023-02-17T21:21:14.023Z,27.25
2023-02-17T21:24:03.379Z,23.67
2023-02-17T21:27:20.185Z,23.52
2023-02-17T21:29:58.803Z,27.13
2023-02-17T21:32:44.149Z,33.47
2023-02-17T21:35:26.134Z,28.52
2023-02-17T21:38:02.146Z,31.10
2023-02-17T21:40:34.897Z,28.65
2023-02-17T21:43:26.128Z,29.58
2023-02-17T21:45:59.782Z,30.30
2023-02-17T21:48:32.486Z,24.20
2023-02-17T21:51:09.795Z,26.25
2023-02-17T21:53:42.592Z,34.08
2023-02-17T21:56:15.654Z,27.58
2023-02-17T21:58:49.880Z,30.05
2023-02-17T22:01:26.118Z,29.65
2023-02-17T22:03:58.874Z,29.58
2023-02-17T22:06:36.847Z,28.30
2023-02-17T22:09:11.572Z,28.23
2023-02-17T22:11:45.929Z,29.35
2023-02-17T22:14:21.087Z,25.52
2023-02-17T22:16:53.813Z,27.98
2023-02-17T22:19:26.885Z,27.38
2023-02-17T22:21:59.599Z,24.48
2023-02-17T22:24:32.382Z,30.77
2023-02-17T22:27:05.140Z,29.83
2023-02-17T22:29:37.868Z,33.20
2023-02-17T22:32:11.071Z,29.85
2023-02-17T22:34:43.842Z,25.75
2023-02-17T22:37:16.505Z,32.40
2023-02-17T22:39:56.208Z,24.10
2023-02-17T22:42:28.991Z,26.65
2023-02-17T22:45:01.779Z,25.65
2023-02-17T22:47:34.474Z,26.63
2023-02-17T22:50:07.403Z,30.30
2023-02-17T22:52:40.082Z,28.67
2023-02-17T22:55:12.833Z,27.20
2023-02-17T22:57:47.618Z,30.00
2023-02-17T23:00:20.443Z,29.10
2023-02-17T23:05:26.436Z,28.65
2023-02-17T23:07:59.163Z,27.77
2023-02-17T23:10:31.843Z,27.45
2023-02-17T23:13:04.526Z,25.55
2023-02-17T23:15:42.764Z,29.98
2023-02-17T23:18:18.089Z,24.10
2023-02-17T23:20:54.178Z,25.27
2023-02-17T23:23:27.239Z,27.08
2023-02-17T23:26:00.105Z,25.10
2023-02-17T23:28:33.235Z,24.90
2023-02-17T23:31:10.691Z,27.20
2023-02-17T23:33:43.431Z,21.20
2023-02-17T23:36:16.252Z,24.67
2023-02-17T23:38:49.042Z,21.55
2023-02-17T23:41:22.486Z,25.60
2023-02-17T23:43:55.356Z,21.65
2023-02-17T23:46:29.234Z,23.48
2023-02-17T23:49:26.807Z,21.63
2023-02-17T23:51:59.517Z,21.25
2023-02-17T23:54:32.381Z,30.90
2023-02-17T23:57:05.552Z,24.23
